Time;durP1;ratioP1;P1;durP2;ratioP2;P2;SDS_P1;SDS_P2;PMS_P1;PMS_P2;Temp;Humidity;BMP_temperature;BMP_pressure;BME280_temperature;BME280_humidity;BME280_pressure;Samples;Min_cycle;Max_cycle;Signal;HPM_P1;HPM_P2
2021/01/09 00:00:43;;;;;;;15.52;6.72;;;;;;;2.86;84.52;99617.53;5053613;28;20206;-66
2021/01/09 00:03:09;;;;;;;9.80;7.03;;;;;;;2.69;84.24;99607.31;5053536;28;20189;-64
2021/01/09 00:05:36;;;;;;;14.90;7.47;;;;;;;2.62;84.80;99624.34;5053836;28;20220;-66
2021/01/09 00:08:04;;;;;;;13.75;7.72;;;;;;;2.65;85.19;99624.28;5053791;28;20205;-65
2021/01/09 00:10:30;;;;;;;13.18;7.00;;;;;;;2.71;85.77;99625.00;5053601;28;20649;-64
2021/01/09 00:12:57;;;;;;;13.68;7.88;;;;;;;2.74;83.63;99624.03;5053059;28;20214;-65
2021/01/09 00:15:23;;;;;;;14.65;8.10;;;;;;;2.83;82.85;99625.59;5053428;28;20194;-64
2021/01/09 00:17:50;;;;;;;10.88;7.13;;;;;;;2.68;83.83;99619.75;5053616;28;20303;-65
2021/01/09 00:20:16;;;;;;;12.95;7.90;;;;;;;2.77;84.60;99620.44;5052931;28;20209;-66
2021/01/09 00:22:43;;;;;;;16.20;8.18;;;;;;;2.61;85.12;99614.63;5053207;28;20205;-65
2021/01/09 00:25:12;;;;;;;15.93;7.90;;;;;;;2.55;85.35;99612.13;5053522;28;20181;-64
2021/01/09 00:27:39;;;;;;;18.60;8.70;;;;;;;2.66;85.04;99610.06;5053506;28;20213;-66
2021/01/09 00:30:07;;;;;;;14.30;6.93;;;;;;;2.45;86.26;99611.50;5053438;28;20231;-65
2021/01/09 00:32:33;;;;;;;12.00;7.20;;;;;;;2.43;86.73;99610.66;5052907;28;20236;-64
2021/01/09 00:35:00;;;;;;;12.57;7.43;;;;;;;2.45;86.48;99609.69;5052804;28;20227;-65
2021/01/09 00:37:26;;;;;;;15.15;7.38;;;;;;;2.38;86.79;99601.94;5053115;28;20567;-64
2021/01/09 00:39:53;;;;;;;12.65;6.25;;;;;;;2.33;87.31;99606.47;5051933;28;20201;-65
2021/01/09 00:42:20;;;;;;;19.55;8.18;;;;;;;2.21;87.46;99612.94;5052893;28;20202;-65
2021/01/09 00:44:47;;;;;;;13.23;7.85;;;;;;;2.09;88.02;99622.09;5052750;28;20213;-65
2021/01/09 00:47:13;;;;;;;12.48;5.93;;;;;;;2.11;88.33;99617.63;5052618;28;20201;-63
2021/01/09 00:49:40;;;;;;;11.77;7.13;;;;;;;2.27;87.78;99624.31;5052911;28;20566;-66
2021/01/09 00:52:06;;;;;;;12.75;7.70;;;;;;;2.36;87.26;99617.03;5052420;28;20686;-64
2021/01/09 00:54:33;;;;;;;15.18;7.93;;;;;;;2.39;87.05;99622.25;5052398;28;20236;-65
2021/01/09 00:56:59;;;;;;;10.45;6.50;;;;;;;2.38;86.87;99618.75;5052221;28;20237;-65
2021/01/09 00:59:27;;;;;;;12.85;7.32;;;;;;;2.36;86.78;99619.69;5052312;28;20209;-65
2021/01/09 01:01:54;;;;;;;11.55;7.07;;;;;;;2.35;86.34;99616.13;5052866;28;20698;-65
2021/01/09 01:04:20;;;;;;;9.73;7.00;;;;;;;2.27;86.62;99621.66;5052279;28;20212;-64
2021/01/09 01:06:47;;;;;;;15.95;8.45;;;;;;;2.35;86.02;99621.44;5052242;28;20257;-64
2021/01/09 01:09:13;;;;;;;11.13;6.68;;;;;;;2.22;87.39;99626.19;5052590;28;20186;-66
2021/01/09 01:11:41;;;;;;;13.77;7.72;;;;;;;2.24;87.61;99623.53;5052080;28;20300;-64
2021/01/09 01:14:08;;;;;;;16.35;8.15;;;;;;;2.30;87.57;99624.22;5052236;28;20225;-66
2021/01/09 01:16:35;;;;;;;11.13;7.40;;;;;;;2.35;87.26;99626.75;5052097;28;20209;-67
2021/01/09 01:19:02;;;;;;;14.48;8.38;;;;;;;2.50;86.18;99628.19;5052117;28;20216;-65
2021/01/09 01:21:28;;;;;;;15.82;9.40;;;;;;;2.34;86.18;99627.69;5051877;28;20247;-65
2021/01/09 01:23:54;;;;;;;16.45;8.75;;;;;;;2.35;86.71;99632.06;5052012;28;20182;-64
2021/01/09 01:26:21;;;;;;;12.05;6.95;;;;;;;2.20;87.49;99635.13;5052239;28;20209;-64
2021/01/09 01:28:47;;;;;;;14.60;8.18;;;;;;;2.12;88.61;99637.94;5052291;28;20603;-65
2021/01/09 01:31:14;;;;;;;12.50;7.35;;;;;;;2.15;88.91;99637.00;5052120;28;20244;-65
2021/01/09 01:33:41;;;;;;;11.82;7.10;;;;;;;2.13;89.70;99639.72;5052082;28;20682;-66
2021/01/09 01:36:09;;;;;;;14.75;8.30;;;;;;;2.06;89.75;99646.94;5052105;28;20205;-64
2021/01/09 01:38:36;;;;;;;11.57;7.97;;;;;;;2.00;90.16;99640.88;5051835;28;20292;-64
2021/01/09 01:41:03;;;;;;;12.50;7.20;;;;;;;1.95;91.02;99650.75;5051617;28;20201;-65
2021/01/09 01:43:29;;;;;;;11.43;8.32;;;;;;;1.88;91.49;99650.00;5052139;28;20244;-65
2021/01/09 01:45:57;;;;;;;14.43;8.13;;;;;;;1.91;91.96;99649.06;5051537;28;20212;-64
2021/01/09 01:48:24;;;;;;;15.70;7.55;;;;;;;1.93;91.58;99652.56;5052008;28;20209;-65
2021/01/09 01:50:51;;;;;;;13.75;7.60;;;;;;;1.97;91.36;99659.56;5051051;28;20209;-66
2021/01/09 01:53:18;;;;;;;14.80;8.52;;;;;;;2.12;90.95;99667.16;5051358;28;20288;-64
2021/01/09 01:55:44;;;;;;;13.50;6.45;;;;;;;2.13;89.95;99662.75;5051845;28;20544;-66
2021/01/09 01:58:11;;;;;;;14.27;7.22;;;;;;;2.17;89.53;99667.94;5051358;28;20315;-64
2021/01/09 02:00:44;;;;;;;15.38;8.07;;;;;;;2.04;89.13;99677.97;5051700;28;20562;-64
2021/01/09 02:03:11;;;;;;;9.68;5.80;;;;;;;2.13;89.33;99674.25;5051715;28;20221;-64
2021/01/09 02:05:42;;;;;;;14.02;9.80;;;;;;;2.23;89.27;99677.56;5051729;28;20208;-63
2021/01/09 02:08:12;;;;;;;10.95;6.70;;;;;;;2.26;88.66;99678.38;5051263;28;20210;-63
2021/01/09 02:10:41;;;;;;;15.55;8.45;;;;;;;2.59;87.48;99686.44;5051445;28;20244;-65
2021/01/09 02:13:13;;;;;;;17.20;9.40;;;;;;;2.47;86.34;99684.09;5051766;28;20190;-65
2021/01/09 02:15:40;;;;;;;16.95;7.53;;;;;;;2.43;86.88;99682.41;5051377;28;20209;-65
2021/01/09 02:18:07;;;;;;;13.73;8.00;;;;;;;2.37;87.27;99678.09;5051260;28;20250;-65
2021/01/09 02:20:35;;;;;;;12.55;7.65;;;;;;;2.57;86.87;99679.41;5051626;28;20654;-64
2021/01/09 02:23:03;;;;;;;12.38;7.45;;;;;;;2.84;85.02;99680.50;5051501;28;20660;-65
2021/01/09 02:25:29;;;;;;;14.20;7.22;;;;;;;2.53;85.92;99681.25;5051692;28;20562;-66
2021/01/09 02:27:56;;;;;;;15.85;7.57;;;;;;;2.29;87.80;99691.56;5051356;28;20214;-65
2021/01/09 02:30:26;;;;;;;14.05;9.40;;;;;;;1.96;89.87;99692.31;5051205;28;20243;-65
2021/01/09 02:32:56;;;;;;;10.63;7.40;;;;;;;1.90;90.97;99681.81;5051738;28;20190;-64
2021/01/09 02:35:23;;;;;;;14.55;8.27;;;;;;;1.81;91.65;99689.09;5051171;28;20229;-65
2021/01/09 02:37:50;;;;;;;15.50;8.02;;;;;;;1.77;92.10;99690.06;5050926;28;20232;-65
2021/01/09 02:40:19;;;;;;;18.15;8.73;;;;;;;1.73;92.61;99691.03;5051447;28;20205;-64
2021/01/09 02:42:45;;;;;;;16.73;7.40;;;;;;;1.84;92.69;99688.16;5051279;28;20695;-64
2021/01/09 02:45:13;;;;;;;12.93;7.45;;;;;;;1.88;92.26;99685.41;5050990;28;20205;-64
2021/01/09 02:47:39;;;;;;;13.32;7.38;;;;;;;1.87;92.13;99678.31;5051385;28;20597;-64
2021/01/09 02:50:21;;;;;;;15.60;7.88;;;;;;;1.97;92.06;99686.13;5051232;28;20297;-65
2021/01/09 02:52:47;;;;;;;13.23;7.95;;;;;;;1.88;91.81;99679.22;4951000;29;20609;-65
2021/01/09 02:55:13;;;;;;;14.32;7.82;;;;;;;2.02;91.50;99681.56;4950818;29;20269;-64
2021/01/09 02:57:40;;;;;;;13.25;7.85;;;;;;;1.91;91.27;99678.28;4950686;29;20258;-63
2021/01/09 03:00:07;;;;;;;16.23;8.40;;;;;;;1.90;91.76;99687.13;4951023;29;20653;-64
2021/01/09 03:02:34;;;;;;;15.75;7.50;;;;;;;1.95;91.78;99688.78;4950870;28;20197;-64
2021/01/09 03:05:00;;;;;;;15.45;8.15;;;;;;;1.94;91.80;99688.81;4954103;29;20208;-64
2021/01/09 03:07:26;;;;;;;12.98;7.75;;;;;;;1.92;92.17;99690.63;4954580;29;20590;-65
2021/01/09 03:09:52;;;;;;;17.33;9.57;;;;;;;2.23;91.08;99696.16;4954307;29;20304;-64
2021/01/09 03:12:18;;;;;;;14.05;8.25;;;;;;;2.11;90.57;99697.31;4954433;29;20209;-65
2021/01/09 03:14:45;;;;;;;14.27;8.80;;;;;;;2.07;90.69;99700.94;4954267;29;20275;-65
2021/01/09 03:17:11;;;;;;;17.70;9.43;;;;;;;2.14;90.64;99696.34;4954474;29;20212;-65
2021/01/09 03:19:37;;;;;;;17.77;7.85;;;;;;;2.13;90.39;99700.81;4954461;29;20280;-65
2021/01/09 03:22:03;;;;;;;14.48;8.70;;;;;;;2.20;89.95;99706.84;4954590;29;20192;-64
2021/01/09 03:24:29;;;;;;;12.82;6.57;;;;;;;2.25;89.36;99704.97;4954244;29;20201;-63
2021/01/09 03:26:55;;;;;;;12.45;7.68;;;;;;;2.27;88.27;99705.81;4954024;29;20324;-65
2021/01/09 03:29:22;;;;;;;13.35;6.95;;;;;;;2.27;86.38;99709.31;4983432;28;20211;-66
2021/01/09 03:31:49;;;;;;;16.33;7.65;;;;;;;2.18;86.25;99706.88;5054345;28;20232;-64
2021/01/09 03:34:15;;;;;;;11.13;7.35;;;;;;;2.13;85.83;99702.59;5054365;28;20679;-65
2021/01/09 03:36:41;;;;;;;11.07;5.47;;;;;;;2.08;85.81;99700.00;5054074;28;20273;-65
2021/01/09 03:39:07;;;;;;;11.13;5.80;;;;;;;1.97;86.30;99694.94;5053979;28;20682;-64
2021/01/09 03:41:33;;;;;;;11.43;5.75;;;;;;;1.86;86.28;99703.13;5054093;28;20193;-65
2021/01/09 03:43:59;;;;;;;12.98;7.00;;;;;;;1.91;86.59;99694.22;5053803;28;20296;-64
2021/01/09 03:46:25;;;;;;;16.73;6.85;;;;;;;1.86;86.98;99702.28;5054305;28;20314;-65
2021/01/09 03:48:52;;;;;;;12.85;7.38;;;;;;;1.76;87.63;99703.34;5054390;28;20549;-65
2021/01/09 03:51:20;;;;;;;11.13;6.32;;;;;;;1.60;88.59;99702.78;5054033;28;20209;-64
2021/01/09 03:53:46;;;;;;;12.13;7.10;;;;;;;1.48;89.64;99701.25;5053877;28;20213;-64
2021/01/09 03:56:13;;;;;;;10.95;6.95;;;;;;;1.52;89.82;99708.25;5054110;28;20213;-64
2021/01/09 03:58:39;;;;;;;16.60;7.03;;;;;;;1.51;90.66;99703.84;5054247;28;20292;-64
2021/01/09 04:01:05;;;;;;;12.10;6.85;;;;;;;1.43;90.92;99696.03;5054264;28;20336;-64
2021/01/09 04:03:31;;;;;;;13.90;7.55;;;;;;;1.42;91.40;99704.88;5053739;28;20205;-64
2021/01/09 04:05:58;;;;;;;17.83;8.00;;;;;;;1.34;91.45;99698.88;5054128;28;20193;-63
2021/01/09 04:08:24;;;;;;;11.32;6.47;;;;;;;1.43;91.42;99700.47;5053800;28;20205;-65
2021/01/09 04:10:50;;;;;;;16.70;8.30;;;;;;;1.36;92.16;99702.38;5053960;28;20273;-65
2021/01/09 04:13:17;;;;;;;16.13;8.65;;;;;;;1.34;92.82;99701.53;5053357;28;20253;-64
2021/01/09 04:15:43;;;;;;;12.75;7.97;;;;;;;1.19;93.16;99705.31;5053583;28;20275;-64
2021/01/09 04:18:10;;;;;;;12.60;6.43;;;;;;;1.08;93.69;99696.69;5053720;28;20209;-65
2021/01/09 04:20:36;;;;;;;11.65;7.00;;;;;;;1.00;94.56;99699.50;5053313;28;20209;-64
2021/01/09 04:23:03;;;;;;;18.15;8.00;;;;;;;0.86;95.47;99698.88;5053304;28;20209;-65
2021/01/09 04:25:30;;;;;;;10.20;6.78;;;;;;;0.78;96.04;99698.97;5053418;28;20224;-65
2021/01/09 04:27:57;;;;;;;12.13;7.45;;;;;;;0.82;96.79;99705.13;5053501;28;20189;-65
2021/01/09 04:30:24;;;;;;;15.93;7.30;;;;;;;0.72;96.27;99712.31;5053490;28;20593;-64
2021/01/09 04:32:50;;;;;;;7.20;5.25;;;;;;;0.75;96.06;99714.94;5053030;28;20209;-65
2021/01/09 04:35:16;;;;;;;9.05;5.93;;;;;;;0.82;95.86;99719.22;5053396;28;20537;-65
2021/01/09 04:37:42;;;;;;;10.52;6.45;;;;;;;0.69;95.63;99714.16;5053034;28;20295;-65
2021/01/09 04:40:10;;;;;;;12.65;7.65;;;;;;;0.48;96.37;99710.94;5053368;28;20236;-64
2021/01/09 04:42:36;;;;;;;13.32;7.13;;;;;;;0.45;97.00;99716.28;5053280;28;20297;-64
2021/01/09 04:45:03;;;;;;;7.45;5.45;;;;;;;0.49;97.39;99717.13;5053170;28;20185;-64
2021/01/09 04:47:31;;;;;;;11.95;7.35;;;;;;;0.44;96.96;99717.19;5053069;28;20679;-64
2021/01/09 04:49:57;;;;;;;15.43;7.93;;;;;;;0.45;97.35;99718.94;5052597;28;20209;-65
2021/01/09 04:52:23;;;;;;;9.82;6.00;;;;;;;0.32;97.32;99717.38;5052673;28;20209;-64
2021/01/09 04:54:51;;;;;;;11.13;6.75;;;;;;;0.39;97.44;99732.28;5053014;28;20333;-63
2021/01/09 04:57:18;;;;;;;17.27;6.65;;;;;;;0.30;97.50;99737.72;5052609;28;20243;-65
2021/01/09 04:59:46;;;;;;;7.68;6.30;;;;;;;0.26;97.73;99731.56;5052829;28;20268;-65
2021/01/09 05:02:13;;;;;;;10.23;5.95;;;;;;;0.27;97.41;99737.75;5052508;28;20340;-63
2021/01/09 05:04:44;;;;;;;14.15;5.82;;;;;;;0.25;97.63;99739.53;5052811;28;20209;-64
2021/01/09 05:07:10;;;;;;;16.27;8.15;;;;;;;0.43;97.58;99738.41;5052396;28;20205;-64
2021/01/09 05:09:36;;;;;;;12.68;5.60;;;;;;;0.33;97.33;99738.53;5052742;28;20580;-64
2021/01/09 05:12:03;;;;;;;9.98;5.90;;;;;;;0.37;97.14;99742.91;5052613;28;20212;-65
2021/01/09 05:14:30;;;;;;;7.65;5.47;;;;;;;0.41;97.41;99735.78;5052091;28;20264;-65
2021/01/09 05:16:58;;;;;;;10.43;6.13;;;;;;;0.54;97.14;99732.06;5052221;28;20259;-64
2021/01/09 05:19:29;;;;;;;15.50;6.90;;;;;;;0.58;96.29;99733.75;5052310;28;20190;-65
2021/01/09 05:21:57;;;;;;;11.27;6.75;;;;;;;0.71;96.08;99730.91;5052664;28;20240;-66
2021/01/09 05:24:23;;;;;;;9.00;6.07;;;;;;;0.91;95.58;99734.13;5052628;28;20288;-64
2021/01/09 05:26:50;;;;;;;12.75;5.93;;;;;;;0.89;93.67;99741.22;5051551;28;20205;-66
2021/01/09 05:29:17;;;;;;;9.00;6.90;;;;;;;1.00;92.27;99743.69;5052362;28;20651;-64
2021/01/09 05:31:45;;;;;;;10.90;5.70;;;;;;;1.00;91.17;99746.34;5051990;28;20208;-64
2021/01/09 05:34:11;;;;;;;9.15;4.88;;;;;;;0.87;90.78;99750.97;5052312;28;20721;-65
2021/01/09 05:36:39;;;;;;;8.45;5.30;;;;;;;1.04;90.29;99750.69;5051801;28;20236;-64
2021/01/09 05:39:06;;;;;;;12.23;7.32;;;;;;;1.07;89.91;99753.28;5052105;28;20209;-65
2021/01/09 05:41:33;;;;;;;10.32;5.18;;;;;;;1.16;87.89;99739.00;5052476;28;20268;-64
2021/01/09 05:44:00;;;;;;;13.90;5.43;;;;;;;1.16;87.86;99752.28;5051951;28;20240;-64
2021/01/09 05:46:29;;;;;;;8.50;5.55;;;;;;;1.25;86.09;99744.16;5051697;28;20212;-64
2021/01/09 05:48:57;;;;;;;6.47;4.45;;;;;;;1.42;85.56;99747.34;5051704;28;20244;-64
2021/01/09 05:51:23;;;;;;;9.80;4.78;;;;;;;1.37;83.99;99746.56;5051628;28;20291;-64
2021/01/09 05:53:50;;;;;;;8.95;5.97;;;;;;;1.32;84.58;99750.22;5051453;28;20348;-65
2021/01/09 05:56:20;;;;;;;8.07;5.00;;;;;;;1.25;84.69;99746.78;5051554;28;21399;-65
2021/01/09 05:58:48;;;;;;;7.80;5.22;;;;;;;1.38;84.68;99750.97;5051674;28;20200;-64
2021/01/09 06:01:15;;;;;;;7.47;3.75;;;;;;;1.49;83.82;99749.91;5051797;28;20654;-64
2021/01/09 06:03:43;;;;;;;5.80;4.00;;;;;;;1.43;81.81;99762.38;5051624;28;20262;-65
2021/01/09 06:06:39;;;;;;;5.95;4.00;;;;;;;1.43;80.33;99761.50;5051331;28;20215;-64
2021/01/09 06:09:08;;;;;;;11.32;4.63;;;;;;;1.38;80.52;99768.66;5051838;28;20185;-65
2021/01/09 06:11:40;;;;;;;9.38;5.30;;;;;;;1.32;80.55;99752.88;5051740;28;20635;-64
2021/01/09 06:14:09;;;;;;;6.35;4.00;;;;;;;1.43;80.10;99754.41;5051281;28;20370;-64
2021/01/09 06:16:39;;;;;;;6.40;3.42;;;;;;;1.41;80.23;99753.56;5051422;28;20205;-64
2021/01/09 06:19:06;;;;;;;7.45;5.18;;;;;;;1.51;80.18;99756.06;5051245;28;20209;-65
2021/01/09 06:21:35;;;;;;;8.95;4.75;;;;;;;1.44;80.01;99749.97;5051702;28;20687;-64
2021/01/09 06:24:02;;;;;;;7.80;4.85;;;;;;;1.36;80.67;99749.25;5051535;28;20204;-64
2021/01/09 06:26:30;;;;;;;7.80;5.07;;;;;;;1.31;80.42;99752.00;5051475;28;20660;-65
2021/01/09 06:28:58;;;;;;;4.18;3.80;;;;;;;1.41;81.10;99755.34;5051521;28;20213;-65
2021/01/09 06:31:26;;;;;;;7.50;3.60;;;;;;;1.42;80.68;99760.59;5051618;28;20244;-65
2021/01/09 06:33:54;;;;;;;6.32;3.22;;;;;;;1.20;81.06;99768.09;5051572;28;20236;-65
2021/01/09 06:36:22;;;;;;;6.00;3.13;;;;;;;1.59;79.83;99765.63;5051517;28;20647;-65
2021/01/09 06:38:51;;;;;;;7.68;4.43;;;;;;;1.50;80.44;99767.59;5054718;28;20207;-64
2021/01/09 06:41:20;;;;;;;13.00;4.75;;;;;;;1.64;79.89;99766.41;5047452;28;20291;-65
2021/01/09 06:43:48;;;;;;;8.90;5.47;;;;;;;1.63;79.59;99769.09;5055356;28;20212;-64
2021/01/09 06:46:30;;;;;;;6.68;3.15;;;;;;;1.58;80.31;99768.28;5055123;28;20239;-63
2021/01/09 06:48:57;;;;;;;7.43;4.97;;;;;;;1.60;80.21;99771.78;5055121;28;20212;-64
2021/01/09 06:51:51;;;;;;;7.30;4.75;;;;;;;1.53;80.00;99773.69;5055488;28;20202;-65
2021/01/09 06:54:29;;;;;;;9.50;3.67;;;;;;;1.49;80.88;99784.38;5054898;28;20231;-65
2021/01/09 06:57:17;;;;;;;9.20;4.93;;;;;;;1.36;81.55;99779.31;5054914;28;20241;-64
2021/01/09 06:59:45;;;;;;;10.30;5.38;;;;;;;1.23;82.06;99781.31;5047659;28;20611;-65
2021/01/09 07:02:14;;;;;;;6.90;4.03;;;;;;;1.20;82.87;99791.09;5055273;28;20240;-64
2021/01/09 07:05:02;;;;;;;6.65;4.40;;;;;;;1.37;82.21;99790.78;5054815;28;20247;-66
2021/01/09 07:07:30;;;;;;;5.35;4.57;;;;;;;1.34;81.98;99793.53;5054861;28;20215;-64
2021/01/09 07:10:23;;;;;;;7.55;4.05;;;;;;;1.34;81.71;99799.69;5054557;28;20216;-65
2021/01/09 07:12:53;;;;;;;5.80;5.13;;;;;;;1.34;81.61;99797.03;5054823;28;20614;-64
2021/01/09 07:15:20;;;;;;;8.35;3.97;;;;;;;1.30;82.37;99797.13;5054910;28;20291;-65
2021/01/09 07:17:51;;;;;;;8.10;4.97;;;;;;;1.20;82.97;99801.72;5054501;28;20217;-65
2021/01/09 07:20:19;;;;;;;7.10;3.78;;;;;;;1.19;83.46;99800.81;5054601;28;20259;-64
2021/01/09 07:22:49;;;;;;;8.65;3.97;;;;;;;1.31;83.53;99799.75;5054390;28;20232;-64
2021/01/09 07:25:29;;;;;;;9.60;4.68;;;;;;;1.19;83.16;99799.94;5054469;28;20259;-64
2021/01/09 07:27:59;;;;;;;7.38;4.60;;;;;;;1.08;83.95;99801.91;5054496;28;20209;-64
2021/01/09 07:30:28;;;;;;;4.80;3.17;;;;;;;0.94;85.35;99794.16;5054196;28;20205;-64
2021/01/09 07:32:55;;;;;;;6.45;3.97;;;;;;;0.90;86.08;99801.28;5054512;28;20216;-65
2021/01/09 07:35:24;;;;;;;9.90;4.35;;;;;;;1.00;86.61;99804.69;5054203;28;20220;-65
2021/01/09 07:37:55;;;;;;;10.65;5.05;;;;;;;1.10;85.60;99808.94;5053981;28;20240;-64
2021/01/09 07:40:23;;;;;;;5.82;3.65;;;;;;;1.17;85.46;99807.06;5054192;28;20359;-64
2021/01/09 07:42:50;;;;;;;8.68;4.22;;;;;;;1.15;85.58;99806.19;5054114;28;20213;-65
2021/01/09 07:45:19;;;;;;;6.32;3.38;;;;;;;1.10;85.73;99800.09;5054598;28;20608;-65
2021/01/09 07:47:46;;;;;;;11.75;4.72;;;;;;;1.46;84.02;99809.22;5054300;28;20210;-64
2021/01/09 07:50:15;;;;;;;8.45;4.50;;;;;;;1.27;84.11;99806.00;5053543;28;20362;-66
2021/01/09 07:52:42;;;;;;;6.22;4.60;;;;;;;1.36;84.63;99812.94;5054257;28;20631;-64
2021/01/09 07:55:10;;;;;;;9.23;5.05;;;;;;;1.23;84.80;99813.13;5053932;28;20686;-64
2021/01/09 07:57:39;;;;;;;8.73;4.70;;;;;;;1.18;84.70;99822.94;5053637;28;20261;-64
2021/01/09 08:00:23;;;;;;;9.82;5.43;;;;;;;1.35;84.87;99827.97;5054127;28;20209;-64
2021/01/09 08:02:52;;;;;;;6.18;3.85;;;;;;;1.30;83.84;99827.16;5054138;28;20271;-63
2021/01/09 08:05:20;;;;;;;9.43;5.20;;;;;;;1.51;82.95;99831.22;5053600;28;20201;-66
2021/01/09 08:07:49;;;;;;;7.85;5.13;;;;;;;1.49;82.00;99833.03;5053461;28;20263;-66
2021/01/09 08:10:17;;;;;;;8.55;5.55;;;;;;;1.51;80.86;99841.84;5053676;28;20640;-65
2021/01/09 08:12:45;;;;;;;9.82;3.88;;;;;;;1.39;81.36;99852.69;5053946;28;20201;-65
2021/01/09 08:15:13;;;;;;;7.45;4.68;;;;;;;1.48;82.03;99851.66;5053561;28;20221;-65
2021/01/09 08:17:39;;;;;;;8.60;4.40;;;;;;;1.38;82.28;99840.28;5053500;28;20201;-64
2021/01/09 08:20:08;;;;;;;8.95;4.38;;;;;;;1.30;82.90;99842.22;5053556;28;20236;-65
2021/01/09 08:22:36;;;;;;;5.85;4.20;;;;;;;1.46;82.57;99844.56;5053210;28;20323;-63
2021/01/09 08:25:10;;;;;;;6.85;3.70;;;;;;;1.67;81.70;99851.31;5053288;28;20266;-65
2021/01/09 08:27:49;;;;;;;15.07;6.63;;;;;;;1.74;81.11;99853.81;5053851;28;20894;-64
2021/01/09 08:30:17;;;;;;;8.10;4.70;;;;;;;1.85;80.80;99859.81;5053247;28;20209;-64
2021/01/09 08:32:45;;;;;;;9.48;7.80;;;;;;;1.91;80.22;99854.41;5053267;28;20566;-64
2021/01/09 08:35:14;;;;;;;9.25;5.85;;;;;;;1.95;79.84;99861.41;5052931;28;20295;-65
2021/01/09 08:37:41;;;;;;;10.18;5.82;;;;;;;1.98;79.86;99853.38;5052946;28;20201;-64
2021/01/09 08:40:20;;;;;;;6.90;4.70;;;;;;;1.90;79.87;99857.06;5053516;28;20236;-65
2021/01/09 08:43:09;;;;;;;7.53;4.20;;;;;;;1.78;80.01;99867.03;5052747;28;20228;-64
2021/01/09 08:45:43;;;;;;;6.40;3.90;;;;;;;1.73;79.97;99865.38;5046072;28;20209;-65
2021/01/09 08:48:11;;;;;;;7.53;4.70;;;;;;;1.83;79.71;99866.94;5052838;28;20191;-66
2021/01/09 08:50:57;;;;;;;7.28;4.65;;;;;;;1.80;79.59;99867.88;5053118;28;20612;-64
2021/01/09 08:53:26;;;;;;;10.30;5.10;;;;;;;1.77;79.93;99875.91;5051891;28;20219;-64
2021/01/09 08:56:00;;;;;;;6.00;3.88;;;;;;;1.79;79.47;99882.06;5052700;28;20225;-64
2021/01/09 08:58:29;;;;;;;10.10;5.25;;;;;;;1.84;79.48;99874.00;5052934;28;20565;-63
2021/01/09 09:00:57;;;;;;;8.18;4.07;;;;;;;1.94;78.63;99869.41;5051432;28;20304;-64
2021/01/09 09:03:25;;;;;;;9.50;5.05;;;;;;;2.11;78.38;99874.41;5052383;28;20251;-65
2021/01/09 09:05:51;;;;;;;10.25;5.72;;;;;;;2.12;78.03;99878.81;5051960;28;20208;-64
2021/01/09 09:08:19;;;;;;;6.55;4.85;;;;;;;2.09;78.02;99879.75;5052343;28;20554;-64
2021/01/09 09:10:47;;;;;;;8.95;6.05;;;;;;;2.17;77.59;99876.94;5052588;28;20209;-64
2021/01/09 09:13:21;;;;;;;9.68;5.05;;;;;;;2.12;77.00;99871.69;5052248;28;20204;-64
2021/01/09 09:15:50;;;;;;;6.63;4.30;;;;;;;2.30;76.88;99873.13;5052144;28;20664;-65
2021/01/09 09:18:20;;;;;;;8.88;5.22;;;;;;;2.36;77.21;99880.13;5052188;28;20222;-64
2021/01/09 09:20:51;;;;;;;9.98;4.65;;;;;;;2.52;76.49;99876.22;5052602;28;20632;-65
2021/01/09 09:23:22;;;;;;;10.02;5.35;;;;;;;2.71;75.07;99879.34;5052133;28;20288;-65
2021/01/09 09:26:18;;;;;;;12.75;5.85;;;;;;;2.54;75.03;99881.53;5052018;28;20198;-65
2021/01/09 09:28:51;;;;;;;7.88;3.88;;;;;;;2.54;75.04;99881.53;4951830;29;20299;-65
2021/01/09 09:31:20;;;;;;;6.82;4.22;;;;;;;2.44;74.86;99886.13;5033138;28;20209;-64
2021/01/09 09:34:11;;;;;;;9.60;5.10;;;;;;;2.71;74.65;99892.66;5052310;28;20682;-63
2021/01/09 09:36:40;;;;;;;7.68;4.80;;;;;;;2.88;74.80;99887.00;5027681;28;20202;-65
2021/01/09 09:39:11;;;;;;;7.28;5.50;;;;;;;3.16;72.55;99891.69;5052380;28;20202;-65
2021/01/09 09:41:55;;;;;;;7.93;4.15;;;;;;;2.82;72.95;99900.41;5051808;28;20244;-64
2021/01/09 09:44:32;;;;;;;7.90;4.70;;;;;;;2.79;74.04;99904.00;5051846;28;20517;-64
2021/01/09 09:46:59;;;;;;;7.65;4.88;;;;;;;3.06;74.01;99905.19;5051744;28;20186;-65
2021/01/09 09:49:25;;;;;;;9.98;4.60;;;;;;;3.19;72.70;99902.25;5051611;28;20206;-64
2021/01/09 09:51:52;;;;;;;7.70;3.97;;;;;;;3.36;72.29;99909.84;5051638;28;20292;-65
2021/01/09 09:54:28;;;;;;;6.55;3.60;;;;;;;3.40;71.05;99909.72;5051331;28;20226;-65
2021/01/09 09:56:54;;;;;;;8.57;4.15;;;;;;;3.51;70.76;99921.00;5051145;28;20233;-65
2021/01/09 09:59:27;;;;;;;7.65;4.13;;;;;;;3.37;71.25;99920.47;5051479;28;20285;-64
2021/01/09 10:01:58;;;;;;;7.75;5.20;;;;;;;3.44;71.27;99916.75;5051848;28;20591;-63
2021/01/09 10:04:25;;;;;;;9.27;4.05;;;;;;;3.54;69.96;99912.06;5051518;28;20191;-65
2021/01/09 10:06:51;;;;;;;11.02;4.82;;;;;;;3.58;69.72;99912.88;5051877;28;20692;-65
2021/01/09 10:09:19;;;;;;;6.00;3.65;;;;;;;3.41;70.06;99913.25;5051289;28;20212;-65
2021/01/09 10:11:47;;;;;;;6.43;5.15;;;;;;;3.57;69.78;99919.97;5051478;28;20233;-64
2021/01/09 10:14:13;;;;;;;6.85;4.50;;;;;;;3.63;70.18;99914.50;5051142;28;20213;-64
2021/01/09 10:16:40;;;;;;;11.65;5.03;;;;;;;3.71;69.03;99911.66;5051275;28;20209;-65
2021/01/09 10:19:09;;;;;;;7.50;4.97;;;;;;;3.73;69.16;99915.13;5051472;28;20621;-65
2021/01/09 10:21:37;;;;;;;8.82;4.28;;;;;;;3.67;68.93;99918.84;5051331;28;20202;-64
2021/01/09 10:24:04;;;;;;;7.40;4.68;;;;;;;3.76;75.45;99913.28;5051514;28;20204;-64
2021/01/09 10:26:32;;;;;;;8.43;4.35;;;;;;;3.93;72.70;99915.53;5051573;28;20280;-64
2021/01/09 10:28:59;;;;;;;12.23;5.45;;;;;;;4.02;68.99;99913.50;5051671;28;20193;-65
2021/01/09 10:31:29;;;;;;;8.82;4.47;;;;;;;3.68;69.43;99911.72;5051141;28;20623;-64
2021/01/09 10:33:55;;;;;;;6.40;3.90;;;;;;;3.86;68.89;99919.22;5051586;28;20199;-64
2021/01/09 10:36:26;;;;;;;10.57;4.68;;;;;;;3.99;68.38;99922.47;5051153;28;20197;-65
2021/01/09 10:38:53;;;;;;;11.13;4.82;;;;;;;4.12;67.56;99920.38;5051482;28;20903;-65
2021/01/09 10:41:19;;;;;;;8.32;5.30;;;;;;;4.21;67.01;99916.59;5051764;28;20222;-66
2021/01/09 10:43:46;;;;;;;7.88;3.83;;;;;;;4.04;67.97;99917.03;5051218;28;20254;-65
2021/01/09 10:46:18;;;;;;;7.95;3.70;;;;;;;4.05;68.03;99917.00;5051431;28;20187;-64
2021/01/09 10:48:44;;;;;;;7.72;4.20;;;;;;;4.05;66.97;99917.00;5051183;28;20194;-65
2021/01/09 10:51:16;;;;;;;6.22;4.15;;;;;;;3.83;68.02;99921.13;5051130;28;20605;-64
2021/01/09 10:53:42;;;;;;;7.78;4.45;;;;;;;3.85;68.16;99909.50;5051348;28;20682;-66
2021/01/09 10:56:09;;;;;;;8.82;4.10;;;;;;;3.54;69.39;99902.28;5050882;28;20316;-65
2021/01/09 10:58:35;;;;;;;9.13;4.97;;;;;;;3.47;69.72;99902.47;5050973;28;20327;-65
2021/01/09 11:01:01;;;;;;;9.35;4.30;;;;;;;3.40;69.83;99904.41;5050867;28;20196;-65
2021/01/09 11:03:27;;;;;;;6.57;3.72;;;;;;;3.42;69.77;99904.38;5051099;28;20292;-64
2021/01/09 11:05:53;;;;;;;4.45;3.22;;;;;;;3.28;69.42;99902.06;5051056;28;20705;-64
2021/01/09 11:08:19;;;;;;;9.85;5.05;;;;;;;3.30;69.13;99897.53;5051088;28;20721;-64
2021/01/09 11:10:46;;;;;;;9.40;5.05;;;;;;;3.32;69.48;99899.28;5050687;28;20292;-64
2021/01/09 11:13:13;;;;;;;4.35;3.25;;;;;;;3.55;69.00;99900.50;5050489;28;20203;-65
2021/01/09 11:15:43;;;;;;;7.03;4.63;;;;;;;3.69;68.26;99897.50;5050475;28;20206;-65
2021/01/09 11:18:09;;;;;;;5.80;3.85;;;;;;;3.46;68.85;99904.28;5050812;28;20209;-66
2021/01/09 11:20:35;;;;;;;5.70;4.40;;;;;;;3.11;69.17;99894.44;5050617;28;20205;-65
2021/01/09 11:23:01;;;;;;;6.18;4.00;;;;;;;3.23;69.93;99893.28;5050826;28;20194;-63
2021/01/09 11:25:27;;;;;;;7.10;4.82;;;;;;;3.20;70.04;99899.56;5053097;28;20300;-64
2021/01/09 11:27:53;;;;;;;5.32;3.25;;;;;;;3.23;70.29;99893.28;5054727;28;20703;-64
2021/01/09 11:30:21;;;;;;;4.90;3.20;;;;;;;3.03;70.57;99897.28;5054512;28;20198;-64
2021/01/09 11:32:47;;;;;;;7.47;3.88;;;;;;;2.98;70.49;99888.50;5054088;28;20292;-64
2021/01/09 11:35:13;;;;;;;7.93;3.20;;;;;;;2.97;71.52;99889.44;5054703;28;20333;-64
2021/01/09 11:37:39;;;;;;;7.15;4.20;;;;;;;3.07;70.98;99882.13;5054698;28;20228;-64
2021/01/09 11:40:06;;;;;;;5.95;3.70;;;;;;;3.00;70.75;99885.84;5054525;28;20622;-65
2021/01/09 11:42:32;;;;;;;6.28;3.83;;;;;;;2.97;70.32;99885.91;5054575;28;20193;-64